Hovedside
METAR-TAF:

METAR-TAF

Lufthavner :

Vadsø lufthavn

Vadsø, Norge

breddegrad: 70-04N, lengdegrad: 029-51E, høyde over havet: 3 m

Gjeldene værobservasjon

Denne rapporten ble laget for 18 minutter siden, klokken 19:20 UTC
Vind 5 kt fra Nord
Temperatur 9°C
Luftfuktighet 81%
Trykk 1013 hPa
Sikt 10 km eller mer
ingen skyer under 1500 m og ingen bygeskyer

METAR: ENVD 131920Z 36005KT CAVOK 09/06 Q1013

Tid: 21:38 (19:38 UTC)

Varsel

Denne rapporten ble laget for 2 timer og 38 minutter siden, klokken 17:00 UTC
Varsel gyldig fra 13. klokken 18 UTC til 13. klokken 23 UTC
Vind 8 kt fra Sørøst
Sikt 10 km eller mer
Få skyer i en høyde av 1500 ft
Brutte skyer i en høyde av 4000 ft

TAF: ENVD 131700Z 1318/1323 13008KT 9999 FEW015 BKN040

Værobservasjoner og værvarsel for over 4000 flyplasser (METAR- og TAF-rapporter).

Tilgjengelige stasjoner er representert av de røde og gule prikkene på kartet.

Hold musepekeren over prikken for å se navnet på stasjonen.

Klikk så for å se værobservasjoner og -varsler.

For å forandre kartet kan du klikke på den grønne knappen med svart kryss for å zoome inn, på den grønne knappen med strek for å zoome ut, eller på de grønne pilene for å se tilstøtende kart.


METAR-TAF: